sensor_id;sensor_type;location;lat;lon;timestamp;temperature;humidity
20319;DHT22;10317;47.254;11.314;2023-12-20T00:01:20;-1.60;99.90
20319;DHT22;10317;47.254;11.314;2023-12-20T00:03:46;-1.70;99.90
20319;DHT22;10317;47.254;11.314;2023-12-20T00:06:12;-1.60;99.90
20319;DHT22;10317;47.254;11.314;2023-12-20T00:08:37;-1.60;99.90
20319;DHT22;10317;47.254;11.314;2023-12-20T00:11:03;-1.60;99.90
20319;DHT22;10317;47.254;11.314;2023-12-20T00:13:29;-1.70;99.90
20319;DHT22;10317;47.254;11.314;2023-12-20T00:15:54;-1.70;99.90
20319;DHT22;10317;47.254;11.314;2023-12-20T00:18:20;-1.80;99.90
20319;DHT22;10317;47.254;11.314;2023-12-20T00:20:46;-1.80;99.90
20319;DHT22;10317;47.254;11.314;2023-12-20T00:23:11;-1.70;99.90
20319;DHT22;10317;47.254;11.314;2023-12-20T00:25:37;-1.70;99.90
20319;DHT22;10317;47.254;11.314;2023-12-20T00:28:03;-1.70;99.90
20319;DHT22;10317;47.254;11.314;2023-12-20T00:30:28;-1.80;99.90
20319;DHT22;10317;47.254;11.314;2023-12-20T00:32:55;-1.80;99.90
20319;DHT22;10317;47.254;11.314;2023-12-20T00:35:21;-1.80;99.90
20319;DHT22;10317;47.254;11.314;2023-12-20T00:37:47;-1.80;99.90
20319;DHT22;10317;47.254;11.314;2023-12-20T00:40:12;-1.90;99.90
20319;DHT22;10317;47.254;11.314;2023-12-20T00:42:38;-2.00;99.90
20319;DHT22;10317;47.254;11.314;2023-12-20T00:45:04;-2.00;99.90
20319;DHT22;10317;47.254;11.314;2023-12-20T00:47:31;-2.00;99.90
20319;DHT22;10317;47.254;11.314;2023-12-20T00:49:57;-1.90;99.90
20319;DHT22;10317;47.254;11.314;2023-12-20T00:52:23;-2.00;99.90
20319;DHT22;10317;47.254;11.314;2023-12-20T00:54:49;-1.90;99.90
20319;DHT22;10317;47.254;11.314;2023-12-20T00:57:14;-2.00;99.90
20319;DHT22;10317;47.254;11.314;2023-12-20T00:59:40;-2.10;99.90
20319;DHT22;10317;47.254;11.314;2023-12-20T01:02:06;-2.10;99.90
20319;DHT22;10317;47.254;11.314;2023-12-20T01:04:32;-2.00;99.90
20319;DHT22;10317;47.254;11.314;2023-12-20T01:06:57;-2.00;99.90
20319;DHT22;10317;47.254;11.314;2023-12-20T01:09:23;-2.00;99.90
20319;DHT22;10317;47.254;11.314;2023-12-20T01:11:52;-1.90;99.90
20319;DHT22;10317;47.254;11.314;2023-12-20T01:14:18;-1.90;99.90
20319;DHT22;10317;47.254;11.314;2023-12-20T01:16:43;-2.00;99.90
20319;DHT22;10317;47.254;11.314;2023-12-20T01:19:09;-2.00;99.90
20319;DHT22;10317;47.254;11.314;2023-12-20T01:21:35;-2.00;99.90
20319;DHT22;10317;47.254;11.314;2023-12-20T01:24:00;-1.90;99.90
20319;DHT22;10317;47.254;11.314;2023-12-20T01:26:26;-1.90;99.90
20319;DHT22;10317;47.254;11.314;2023-12-20T01:28:51;-1.90;99.90
20319;DHT22;10317;47.254;11.314;2023-12-20T01:31:17;-1.90;99.90
20319;DHT22;10317;47.254;11.314;2023-12-20T01:33:43;-1.90;99.90
20319;DHT22;10317;47.254;11.314;2023-12-20T01:36:08;-1.90;99.90
20319;DHT22;10317;47.254;11.314;2023-12-20T01:38:34;-1.80;99.90
20319;DHT22;10317;47.254;11.314;2023-12-20T01:41:00;-1.80;99.90
20319;DHT22;10317;47.254;11.314;2023-12-20T01:43:26;-1.80;99.90
20319;DHT22;10317;47.254;11.314;2023-12-20T01:45:52;-1.80;99.90
20319;DHT22;10317;47.254;11.314;2023-12-20T01:48:18;-1.80;99.90
20319;DHT22;10317;47.254;11.314;2023-12-20T01:50:45;-1.80;99.90
20319;DHT22;10317;47.254;11.314;2023-12-20T01:53:12;-1.70;99.90
20319;DHT22;10317;47.254;11.314;2023-12-20T01:55:39;-1.70;99.90
20319;DHT22;10317;47.254;11.314;2023-12-20T01:58:06;-1.70;99.90
20319;DHT22;10317;47.254;11.314;2023-12-20T02:00:33;-1.70;99.90
20319;DHT22;10317;47.254;11.314;2023-12-20T02:03:01;-1.70;99.90
20319;DHT22;10317;47.254;11.314;2023-12-20T02:05:31;-1.70;99.90
20319;DHT22;10317;47.254;11.314;2023-12-20T02:07:57;-1.70;99.90
20319;DHT22;10317;47.254;11.314;2023-12-20T02:10:24;-1.70;99.90
20319;DHT22;10317;47.254;11.314;2023-12-20T02:12:50;-1.70;99.90
20319;DHT22;10317;47.254;11.314;2023-12-20T02:15:15;-1.60;99.90
20319;DHT22;10317;47.254;11.314;2023-12-20T02:17:41;-1.60;99.90
20319;DHT22;10317;47.254;11.314;2023-12-20T02:20:07;-1.60;99.90
20319;DHT22;10317;47.254;11.314;2023-12-20T02:22:33;-1.60;99.90
20319;DHT22;10317;47.254;11.314;2023-12-20T02:24:59;-1.60;99.90
20319;DHT22;10317;47.254;11.314;2023-12-20T02:27:24;-1.60;99.90
20319;DHT22;10317;47.254;11.314;2023-12-20T02:29:50;-1.60;99.90
20319;DHT22;10317;47.254;11.314;2023-12-20T02:32:17;-1.60;99.90
20319;DHT22;10317;47.254;11.314;2023-12-20T02:34:43;-1.50;99.90
20319;DHT22;10317;47.254;11.314;2023-12-20T02:37:09;-1.50;99.90
20319;DHT22;10317;47.254;11.314;2023-12-20T02:39:35;-1.50;99.90
20319;DHT22;10317;47.254;11.314;2023-12-20T02:42:00;-1.50;99.90
20319;DHT22;10317;47.254;11.314;2023-12-20T02:44:26;-1.50;99.90
20319;DHT22;10317;47.254;11.314;2023-12-20T02:46:51;-1.50;99.90
20319;DHT22;10317;47.254;11.314;2023-12-20T02:49:17;-1.50;99.90
20319;DHT22;10317;47.254;11.314;2023-12-20T02:51:43;-1.50;99.90
20319;DHT22;10317;47.254;11.314;2023-12-20T02:54:09;-1.40;99.90
20319;DHT22;10317;47.254;11.314;2023-12-20T02:56:34;-1.40;99.90
20319;DHT22;10317;47.254;11.314;2023-12-20T02:59:00;-1.40;99.90
20319;DHT22;10317;47.254;11.314;2023-12-20T03:01:27;-1.40;99.90
20319;DHT22;10317;47.254;11.314;2023-12-20T03:03:52;-1.40;99.90
20319;DHT22;10317;47.254;11.314;2023-12-20T03:06:18;-1.30;99.90
20319;DHT22;10317;47.254;11.314;2023-12-20T03:08:44;-1.30;99.90
20319;DHT22;10317;47.254;11.314;2023-12-20T03:11:10;-1.20;99.90
20319;DHT22;10317;47.254;11.314;2023-12-20T03:13:36;-1.20;99.90
20319;DHT22;10317;47.254;11.314;2023-12-20T03:16:11;-1.20;99.90
20319;DHT22;10317;47.254;11.314;2023-12-20T03:18:37;-1.20;99.90
20319;DHT22;10317;47.254;11.314;2023-12-20T03:21:04;-1.10;99.90
20319;DHT22;10317;47.254;11.314;2023-12-20T03:23:30;-1.10;99.90
20319;DHT22;10317;47.254;11.314;2023-12-20T03:25:58;-1.10;99.90
20319;DHT22;10317;47.254;11.314;2023-12-20T03:28:23;-1.00;99.90
20319;DHT22;10317;47.254;11.314;2023-12-20T03:30:49;-1.00;99.90
20319;DHT22;10317;47.254;11.314;2023-12-20T03:33:15;-1.00;99.90
20319;DHT22;10317;47.254;11.314;2023-12-20T03:35:40;-1.00;99.90
20319;DHT22;10317;47.254;11.314;2023-12-20T03:38:06;-1.00;99.90
20319;DHT22;10317;47.254;11.314;2023-12-20T03:40:32;-0.90;99.90
20319;DHT22;10317;47.254;11.314;2023-12-20T03:42:58;-0.90;99.90
20319;DHT22;10317;47.254;11.314;2023-12-20T03:45:23;-0.90;99.90
20319;DHT22;10317;47.254;11.314;2023-12-20T03:47:49;-0.90;99.90
20319;DHT22;10317;47.254;11.314;2023-12-20T03:50:15;-0.90;99.90
20319;DHT22;10317;47.254;11.314;2023-12-20T03:52:41;-0.80;99.90
20319;DHT22;10317;47.254;11.314;2023-12-20T03:55:07;-0.80;99.90
20319;DHT22;10317;47.254;11.314;2023-12-20T03:57:32;-0.80;99.90
20319;DHT22;10317;47.254;11.314;2023-12-20T03:59:58;-0.80;99.90
20319;DHT22;10317;47.254;11.314;2023-12-20T04:02:23;-0.80;99.90
20319;DHT22;10317;47.254;11.314;2023-12-20T04:04:49;-0.80;99.90
20319;DHT22;10317;47.254;11.314;2023-12-20T04:07:15;-0.70;99.90
20319;DHT22;10317;47.254;11.314;2023-12-20T04:09:41;-0.70;99.90
20319;DHT22;10317;47.254;11.314;2023-12-20T04:12:07;-0.70;99.90
20319;DHT22;10317;47.254;11.314;2023-12-20T04:14:32;-0.70;99.90
20319;DHT22;10317;47.254;11.314;2023-12-20T04:16:58;-0.70;99.90
20319;DHT22;10317;47.254;11.314;2023-12-20T04:19:24;-0.60;99.90
20319;DHT22;10317;47.254;11.314;2023-12-20T04:21:49;-0.60;99.90
20319;DHT22;10317;47.254;11.314;2023-12-20T04:24:15;-0.50;99.90
20319;DHT22;10317;47.254;11.314;2023-12-20T04:26:41;-0.50;99.90
20319;DHT22;10317;47.254;11.314;2023-12-20T04:29:07;-0.40;99.90
20319;DHT22;10317;47.254;11.314;2023-12-20T04:31:32;-0.40;99.90
20319;DHT22;10317;47.254;11.314;2023-12-20T04:33:58;-0.30;99.90
20319;DHT22;10317;47.254;11.314;2023-12-20T04:36:24;-0.30;99.90
20319;DHT22;10317;47.254;11.314;2023-12-20T04:38:52;-0.20;99.90
20319;DHT22;10317;47.254;11.314;2023-12-20T04:41:18;-0.30;99.90
20319;DHT22;10317;47.254;11.314;2023-12-20T04:43:44;-0.20;99.90
20319;DHT22;10317;47.254;11.314;2023-12-20T04:46:10;-0.30;99.90
20319;DHT22;10317;47.254;11.314;2023-12-20T04:48:36;-0.20;99.90
20319;DHT22;10317;47.254;11.314;2023-12-20T04:51:01;-0.20;99.90
20319;DHT22;10317;47.254;11.314;2023-12-20T04:53:27;-0.20;99.90
20319;DHT22;10317;47.254;11.314;2023-12-20T04:55:53;-0.20;99.90
20319;DHT22;10317;47.254;11.314;2023-12-20T04:58:19;-0.20;99.90
20319;DHT22;10317;47.254;11.314;2023-12-20T05:00:44;-0.20;99.90
20319;DHT22;10317;47.254;11.314;2023-12-20T05:03:10;-0.20;99.90
20319;DHT22;10317;47.254;11.314;2023-12-20T05:05:36;-0.20;99.90
20319;DHT22;10317;47.254;11.314;2023-12-20T05:08:01;-0.30;99.90
20319;DHT22;10317;47.254;11.314;2023-12-20T05:10:27;-0.20;99.90
20319;DHT22;10317;47.254;11.314;2023-12-20T05:12:53;-0.20;99.90
20319;DHT22;10317;47.254;11.314;2023-12-20T05:15:19;-0.20;99.90
20319;DHT22;10317;47.254;11.314;2023-12-20T05:17:44;-0.20;99.90
20319;DHT22;10317;47.254;11.314;2023-12-20T05:20:10;-0.20;99.90
20319;DHT22;10317;47.254;11.314;2023-12-20T05:22:36;-0.20;99.90
20319;DHT22;10317;47.254;11.314;2023-12-20T05:25:01;-0.20;99.90
20319;DHT22;10317;47.254;11.314;2023-12-20T05:27:27;-0.30;99.90
20319;DHT22;10317;47.254;11.314;2023-12-20T05:29:53;-0.20;99.90
20319;DHT22;10317;47.254;11.314;2023-12-20T05:32:23;-0.20;99.90
20319;DHT22;10317;47.254;11.314;2023-12-20T05:34:48;-0.20;99.90
20319;DHT22;10317;47.254;11.314;2023-12-20T05:37:14;-0.20;99.90
20319;DHT22;10317;47.254;11.314;2023-12-20T05:39:40;-0.20;99.90
20319;DHT22;10317;47.254;11.314;2023-12-20T05:42:05;-0.20;99.90
20319;DHT22;10317;47.254;11.314;2023-12-20T05:44:31;-0.20;99.90
20319;DHT22;10317;47.254;11.314;2023-12-20T05:46:56;-0.20;99.90
20319;DHT22;10317;47.254;11.314;2023-12-20T05:49:22;-0.20;99.90
20319;DHT22;10317;47.254;11.314;2023-12-20T05:51:48;-0.20;99.90
20319;DHT22;10317;47.254;11.314;2023-12-20T05:54:13;-0.10;99.90
20319;DHT22;10317;47.254;11.314;2023-12-20T05:56:39;-0.10;99.90
20319;DHT22;10317;47.254;11.314;2023-12-20T05:59:05;-0.10;99.90
20319;DHT22;10317;47.254;11.314;2023-12-20T06:01:30;-0.10;99.90
20319;DHT22;10317;47.254;11.314;2023-12-20T06:03:56;0.00;99.90
20319;DHT22;10317;47.254;11.314;2023-12-20T06:06:23;0.00;99.90
20319;DHT22;10317;47.254;11.314;2023-12-20T06:08:49;0.00;99.90
20319;DHT22;10317;47.254;11.314;2023-12-20T06:11:14;0.00;99.90
20319;DHT22;10317;47.254;11.314;2023-12-20T06:13:40;0.00;99.90
20319;DHT22;10317;47.254;11.314;2023-12-20T06:16:06;0.00;99.90
20319;DHT22;10317;47.254;11.314;2023-12-20T06:18:32;0.00;99.90
20319;DHT22;10317;47.254;11.314;2023-12-20T06:20:58;0.00;99.90
20319;DHT22;10317;47.254;11.314;2023-12-20T06:23:24;0.00;99.90
20319;DHT22;10317;47.254;11.314;2023-12-20T06:25:49;0.00;99.90
20319;DHT22;10317;47.254;11.314;2023-12-20T06:28:15;0.00;99.90
20319;DHT22;10317;47.254;11.314;2023-12-20T06:30:41;0.00;99.90
20319;DHT22;10317;47.254;11.314;2023-12-20T06:33:06;0.00;99.90
20319;DHT22;10317;47.254;11.314;2023-12-20T06:35:32;0.00;99.90
20319;DHT22;10317;47.254;11.314;2023-12-20T06:37:58;0.00;99.90
20319;DHT22;10317;47.254;11.314;2023-12-20T06:40:23;0.00;99.90
20319;DHT22;10317;47.254;11.314;2023-12-20T06:42:49;0.10;99.90
20319;DHT22;10317;47.254;11.314;2023-12-20T06:45:15;0.20;99.90
20319;DHT22;10317;47.254;11.314;2023-12-20T06:47:41;0.20;99.90
20319;DHT22;10317;47.254;11.314;2023-12-20T06:50:06;0.20;99.90
20319;DHT22;10317;47.254;11.314;2023-12-20T06:52:34;0.20;99.90
20319;DHT22;10317;47.254;11.314;2023-12-20T06:55:00;0.30;99.90
20319;DHT22;10317;47.254;11.314;2023-12-20T06:57:26;0.30;99.90
20319;DHT22;10317;47.254;11.314;2023-12-20T06:59:53;0.30;99.90
20319;DHT22;10317;47.254;11.314;2023-12-20T07:02:19;0.40;99.90
20319;DHT22;10317;47.254;11.314;2023-12-20T07:04:44;0.40;99.90
20319;DHT22;10317;47.254;11.314;2023-12-20T07:07:10;0.40;99.90
20319;DHT22;10317;47.254;11.314;2023-12-20T07:09:36;0.40;99.90
20319;DHT22;10317;47.254;11.314;2023-12-20T07:12:01;0.40;99.90
20319;DHT22;10317;47.254;11.314;2023-12-20T07:14:27;0.30;99.90
20319;DHT22;10317;47.254;11.314;2023-12-20T07:16:54;0.30;99.90
20319;DHT22;10317;47.254;11.314;2023-12-20T07:19:20;0.30;99.90
20319;DHT22;10317;47.254;11.314;2023-12-20T07:21:45;0.30;99.90
20319;DHT22;10317;47.254;11.314;2023-12-20T07:24:11;0.30;99.90
20319;DHT22;10317;47.254;11.314;2023-12-20T07:26:37;0.30;99.90
20319;DHT22;10317;47.254;11.314;2023-12-20T07:29:05;0.30;99.90
20319;DHT22;10317;47.254;11.314;2023-12-20T07:31:32;0.40;99.90
20319;DHT22;10317;47.254;11.314;2023-12-20T07:33:58;0.40;99.90
20319;DHT22;10317;47.254;11.314;2023-12-20T07:36:23;0.40;99.90
20319;DHT22;10317;47.254;11.314;2023-12-20T07:38:49;0.40;99.90
20319;DHT22;10317;47.254;11.314;2023-12-20T07:41:15;0.50;99.90
20319;DHT22;10317;47.254;11.314;2023-12-20T07:43:46;0.50;99.90
20319;DHT22;10317;47.254;11.314;2023-12-20T07:46:12;0.40;99.90
20319;DHT22;10317;47.254;11.314;2023-12-20T07:48:38;0.40;99.90
20319;DHT22;10317;47.254;11.314;2023-12-20T07:51:04;0.50;99.90
20319;DHT22;10317;47.254;11.314;2023-12-20T07:53:32;0.50;99.90
20319;DHT22;10317;47.254;11.314;2023-12-20T07:55:58;0.50;99.90
20319;DHT22;10317;47.254;11.314;2023-12-20T07:58:23;0.60;99.90
20319;DHT22;10317;47.254;11.314;2023-12-20T08:00:49;0.60;99.90
20319;DHT22;10317;47.254;11.314;2023-12-20T08:03:15;0.60;99.90
20319;DHT22;10317;47.254;11.314;2023-12-20T08:05:41;0.60;99.90
20319;DHT22;10317;47.254;11.314;2023-12-20T08:08:07;0.70;99.90
20319;DHT22;10317;47.254;11.314;2023-12-20T08:10:33;0.70;99.90
20319;DHT22;10317;47.254;11.314;2023-12-20T08:12:58;0.70;99.90
20319;DHT22;10317;47.254;11.314;2023-12-20T08:15:24;0.80;99.90
20319;DHT22;10317;47.254;11.314;2023-12-20T08:17:50;0.80;99.90
20319;DHT22;10317;47.254;11.314;2023-12-20T08:20:16;0.90;99.90
20319;DHT22;10317;47.254;11.314;2023-12-20T08:22:42;1.00;99.90
20319;DHT22;10317;47.254;11.314;2023-12-20T08:25:08;1.10;99.90
20319;DHT22;10317;47.254;11.314;2023-12-20T08:27:38;1.20;99.90
20319;DHT22;10317;47.254;11.314;2023-12-20T08:30:03;1.30;99.90
20319;DHT22;10317;47.254;11.314;2023-12-20T08:32:29;1.40;99.90
20319;DHT22;10317;47.254;11.314;2023-12-20T08:34:55;1.30;99.90
20319;DHT22;10317;47.254;11.314;2023-12-20T08:37:21;1.40;99.90
20319;DHT22;10317;47.254;11.314;2023-12-20T08:39:46;1.40;99.90
20319;DHT22;10317;47.254;11.314;2023-12-20T08:42:12;1.30;99.90
20319;DHT22;10317;47.254;11.314;2023-12-20T08:44:37;1.30;99.90
20319;DHT22;10317;47.254;11.314;2023-12-20T08:47:03;1.40;99.90
20319;DHT22;10317;47.254;11.314;2023-12-20T08:49:30;1.30;99.90
20319;DHT22;10317;47.254;11.314;2023-12-20T08:51:56;1.30;99.90
20319;DHT22;10317;47.254;11.314;2023-12-20T08:54:22;1.30;99.90
20319;DHT22;10317;47.254;11.314;2023-12-20T08:56:48;1.30;99.90
20319;DHT22;10317;47.254;11.314;2023-12-20T08:59:13;1.20;99.90
20319;DHT22;10317;47.254;11.314;2023-12-20T09:01:39;1.30;99.90
20319;DHT22;10317;47.254;11.314;2023-12-20T09:04:05;1.20;99.90
20319;DHT22;10317;47.254;11.314;2023-12-20T09:06:32;1.30;99.90
20319;DHT22;10317;47.254;11.314;2023-12-20T09:08:57;1.30;99.90
20319;DHT22;10317;47.254;11.314;2023-12-20T09:11:23;1.30;99.90
20319;DHT22;10317;47.254;11.314;2023-12-20T09:13:48;1.30;99.90
20319;DHT22;10317;47.254;11.314;2023-12-20T09:16:14;1.30;99.90
20319;DHT22;10317;47.254;11.314;2023-12-20T09:18:41;1.30;99.90
20319;DHT22;10317;47.254;11.314;2023-12-20T09:21:07;1.30;99.90
20319;DHT22;10317;47.254;11.314;2023-12-20T09:23:33;1.30;99.90
20319;DHT22;10317;47.254;11.314;2023-12-20T09:25:58;1.30;99.90
20319;DHT22;10317;47.254;11.314;2023-12-20T09:28:24;1.40;99.90
20319;DHT22;10317;47.254;11.314;2023-12-20T09:30:50;1.40;99.90
20319;DHT22;10317;47.254;11.314;2023-12-20T09:33:15;1.50;99.90
20319;DHT22;10317;47.254;11.314;2023-12-20T09:35:42;1.60;99.90
20319;DHT22;10317;47.254;11.314;2023-12-20T09:38:07;1.60;99.90
20319;DHT22;10317;47.254;11.314;2023-12-20T09:40:35;1.70;99.90
20319;DHT22;10317;47.254;11.314;2023-12-20T09:43:10;1.70;99.90
20319;DHT22;10317;47.254;11.314;2023-12-20T09:45:36;1.70;99.90
20319;DHT22;10317;47.254;11.314;2023-12-20T09:48:04;1.70;99.90
20319;DHT22;10317;47.254;11.314;2023-12-20T09:50:30;1.70;99.90
20319;DHT22;10317;47.254;11.314;2023-12-20T09:52:58;1.60;99.90
20319;DHT22;10317;47.254;11.314;2023-12-20T09:55:27;1.70;99.90
20319;DHT22;10317;47.254;11.314;2023-12-20T09:57:53;1.70;99.90
20319;DHT22;10317;47.254;11.314;2023-12-20T10:00:19;1.80;99.90
20319;DHT22;10317;47.254;11.314;2023-12-20T10:02:57;1.80;99.90
20319;DHT22;10317;47.254;11.314;2023-12-20T10:05:28;1.90;99.90
20319;DHT22;10317;47.254;11.314;2023-12-20T10:07:55;1.90;99.90
20319;DHT22;10317;47.254;11.314;2023-12-20T10:10:20;1.90;99.90
20319;DHT22;10317;47.254;11.314;2023-12-20T10:13:04;1.90;99.90
20319;DHT22;10317;47.254;11.314;2023-12-20T10:15:31;1.90;99.90
20319;DHT22;10317;47.254;11.314;2023-12-20T10:17:57;2.00;99.90
20319;DHT22;10317;47.254;11.314;2023-12-20T10:20:23;2.00;99.90
20319;DHT22;10317;47.254;11.314;2023-12-20T10:22:49;2.00;99.90
20319;DHT22;10317;47.254;11.314;2023-12-20T10:25:15;2.00;99.90
20319;DHT22;10317;47.254;11.314;2023-12-20T10:27:40;2.00;99.90
20319;DHT22;10317;47.254;11.314;2023-12-20T10:30:06;2.00;99.90
20319;DHT22;10317;47.254;11.314;2023-12-20T10:32:32;2.10;99.90
20319;DHT22;10317;47.254;11.314;2023-12-20T10:34:58;2.20;99.90
20319;DHT22;10317;47.254;11.314;2023-12-20T10:37:24;2.30;99.90
20319;DHT22;10317;47.254;11.314;2023-12-20T10:39:52;2.60;99.90
20319;DHT22;10317;47.254;11.314;2023-12-20T10:42:22;2.90;99.90
20319;DHT22;10317;47.254;11.314;2023-12-20T10:44:49;3.30;99.90
20319;DHT22;10317;47.254;11.314;2023-12-20T10:47:17;3.50;99.90
20319;DHT22;10317;47.254;11.314;2023-12-20T10:49:43;3.60;99.90
20319;DHT22;10317;47.254;11.314;2023-12-20T10:52:11;3.70;99.90
20319;DHT22;10317;47.254;11.314;2023-12-20T10:54:38;3.80;99.90
20319;DHT22;10317;47.254;11.314;2023-12-20T10:57:05;3.90;99.90
20319;DHT22;10317;47.254;11.314;2023-12-20T10:59:33;3.90;99.90
20319;DHT22;10317;47.254;11.314;2023-12-20T11:02:03;3.70;99.90
20319;DHT22;10317;47.254;11.314;2023-12-20T11:04:42;3.60;99.90
20319;DHT22;10317;47.254;11.314;2023-12-20T11:10:42;3.70;99.90
20319;DHT22;10317;47.254;11.314;2023-12-20T11:13:20;4.10;99.90
20319;DHT22;10317;47.254;11.314;2023-12-20T11:15:45;4.40;99.90
20319;DHT22;10317;47.254;11.314;2023-12-20T11:18:11;4.80;99.90
20319;DHT22;10317;47.254;11.314;2023-12-20T11:20:41;5.00;99.90
20319;DHT22;10317;47.254;11.314;2023-12-20T11:23:08;5.20;99.90
20319;DHT22;10317;47.254;11.314;2023-12-20T11:25:47;5.40;99.90
20319;DHT22;10317;47.254;11.314;2023-12-20T11:28:14;6.00;99.90
20319;DHT22;10317;47.254;11.314;2023-12-20T11:30:48;6.50;99.90
20319;DHT22;10317;47.254;11.314;2023-12-20T11:33:15;6.50;99.90
20319;DHT22;10317;47.254;11.314;2023-12-20T11:48:02;5.90;99.90
20319;DHT22;10317;47.254;11.314;2023-12-20T11:50:29;7.10;99.90
20319;DHT22;10317;47.254;11.314;2023-12-20T11:52:56;8.10;99.90
20319;DHT22;10317;47.254;11.314;2023-12-20T11:55:22;9.00;99.90
20319;DHT22;10317;47.254;11.314;2023-12-20T11:57:50;9.30;99.90
20319;DHT22;10317;47.254;11.314;2023-12-20T12:00:16;9.80;99.90
20319;DHT22;10317;47.254;11.314;2023-12-20T12:02:42;9.90;99.90
20319;DHT22;10317;47.254;11.314;2023-12-20T12:05:08;9.40;99.90
20319;DHT22;10317;47.254;11.314;2023-12-20T12:07:35;8.50;99.90
20319;DHT22;10317;47.254;11.314;2023-12-20T12:10:00;7.50;99.90
20319;DHT22;10317;47.254;11.314;2023-12-20T12:12:26;6.70;99.90
20319;DHT22;10317;47.254;11.314;2023-12-20T12:14:54;6.10;99.90
20319;DHT22;10317;47.254;11.314;2023-12-20T12:17:20;5.40;99.90
20319;DHT22;10317;47.254;11.314;2023-12-20T12:19:45;4.90;99.90
20319;DHT22;10317;47.254;11.314;2023-12-20T12:22:13;4.50;99.90
20319;DHT22;10317;47.254;11.314;2023-12-20T12:24:47;4.20;99.90
20319;DHT22;10317;47.254;11.314;2023-12-20T12:27:15;3.90;99.90
20319;DHT22;10317;47.254;11.314;2023-12-20T12:29:43;3.70;99.90
20319;DHT22;10317;47.254;11.314;2023-12-20T12:32:25;3.50;99.90
20319;DHT22;10317;47.254;11.314;2023-12-20T12:34:51;3.40;99.90
20319;DHT22;10317;47.254;11.314;2023-12-20T12:37:17;3.20;99.90
20319;DHT22;10317;47.254;11.314;2023-12-20T12:39:42;3.20;99.90
20319;DHT22;10317;47.254;11.314;2023-12-20T12:42:08;3.10;99.90
20319;DHT22;10317;47.254;11.314;2023-12-20T12:44:33;2.90;99.90
20319;DHT22;10317;47.254;11.314;2023-12-20T12:46:59;2.80;99.90
20319;DHT22;10317;47.254;11.314;2023-12-20T12:49:25;2.80;99.90
20319;DHT22;10317;47.254;11.314;2023-12-20T12:51:53;2.70;99.90
20319;DHT22;10317;47.254;11.314;2023-12-20T12:54:21;2.70;99.90
20319;DHT22;10317;47.254;11.314;2023-12-20T12:56:47;2.60;99.90
20319;DHT22;10317;47.254;11.314;2023-12-20T12:59:13;2.50;99.90
20319;DHT22;10317;47.254;11.314;2023-12-20T13:01:38;2.50;99.90
20319;DHT22;10317;47.254;11.314;2023-12-20T13:04:04;2.40;99.90
20319;DHT22;10317;47.254;11.314;2023-12-20T13:06:36;2.40;99.90
20319;DHT22;10317;47.254;11.314;2023-12-20T13:09:02;2.30;99.90
20319;DHT22;10317;47.254;11.314;2023-12-20T13:11:28;2.30;99.90
20319;DHT22;10317;47.254;11.314;2023-12-20T13:13:54;2.30;99.90
20319;DHT22;10317;47.254;11.314;2023-12-20T13:16:20;2.20;99.90
20319;DHT22;10317;47.254;11.314;2023-12-20T13:18:45;2.10;99.90
20319;DHT22;10317;47.254;11.314;2023-12-20T13:21:11;2.10;99.90
20319;DHT22;10317;47.254;11.314;2023-12-20T13:23:37;2.10;99.90
20319;DHT22;10317;47.254;11.314;2023-12-20T13:26:02;2.10;99.90
20319;DHT22;10317;47.254;11.314;2023-12-20T13:28:28;2.00;99.90
20319;DHT22;10317;47.254;11.314;2023-12-20T13:30:54;2.00;99.90
20319;DHT22;10317;47.254;11.314;2023-12-20T13:33:20;2.00;99.90
20319;DHT22;10317;47.254;11.314;2023-12-20T13:35:45;2.00;99.90
20319;DHT22;10317;47.254;11.314;2023-12-20T13:38:13;2.00;99.90
20319;DHT22;10317;47.254;11.314;2023-12-20T13:40:39;2.10;99.90
20319;DHT22;10317;47.254;11.314;2023-12-20T13:43:04;2.10;99.90
20319;DHT22;10317;47.254;11.314;2023-12-20T13:45:31;2.10;99.90
20319;DHT22;10317;47.254;11.314;2023-12-20T13:47:58;2.10;99.90
20319;DHT22;10317;47.254;11.314;2023-12-20T13:50:24;2.10;99.90
20319;DHT22;10317;47.254;11.314;2023-12-20T13:52:50;2.10;99.90
20319;DHT22;10317;47.254;11.314;2023-12-20T13:55:15;2.10;99.90
20319;DHT22;10317;47.254;11.314;2023-12-20T13:57:41;2.10;99.90
20319;DHT22;10317;47.254;11.314;2023-12-20T14:00:07;2.10;99.90
20319;DHT22;10317;47.254;11.314;2023-12-20T14:02:40;2.10;99.90
20319;DHT22;10317;47.254;11.314;2023-12-20T14:05:07;2.10;99.90
20319;DHT22;10317;47.254;11.314;2023-12-20T14:07:33;2.10;99.90
20319;DHT22;10317;47.254;11.314;2023-12-20T14:09:59;2.00;99.90
20319;DHT22;10317;47.254;11.314;2023-12-20T14:12:25;2.00;99.90
20319;DHT22;10317;47.254;11.314;2023-12-20T14:14:50;1.90;99.90
20319;DHT22;10317;47.254;11.314;2023-12-20T14:17:17;1.90;99.90
20319;DHT22;10317;47.254;11.314;2023-12-20T14:19:43;1.90;99.90
20319;DHT22;10317;47.254;11.314;2023-12-20T14:22:09;1.80;99.90
20319;DHT22;10317;47.254;11.314;2023-12-20T14:24:37;1.80;99.90
20319;DHT22;10317;47.254;11.314;2023-12-20T14:27:03;1.80;99.90
20319;DHT22;10317;47.254;11.314;2023-12-20T14:29:28;1.80;99.90
20319;DHT22;10317;47.254;11.314;2023-12-20T14:31:54;1.80;99.90
20319;DHT22;10317;47.254;11.314;2023-12-20T14:34:20;1.80;99.90
20319;DHT22;10317;47.254;11.314;2023-12-20T14:36:45;1.80;99.90
20319;DHT22;10317;47.254;11.314;2023-12-20T14:39:11;1.80;99.90
20319;DHT22;10317;47.254;11.314;2023-12-20T14:41:38;1.70;99.90
20319;DHT22;10317;47.254;11.314;2023-12-20T14:44:05;1.70;99.90
20319;DHT22;10317;47.254;11.314;2023-12-20T14:46:32;1.70;99.90
20319;DHT22;10317;47.254;11.314;2023-12-20T14:48:57;1.60;99.90
20319;DHT22;10317;47.254;11.314;2023-12-20T14:51:23;1.60;99.90
20319;DHT22;10317;47.254;11.314;2023-12-20T14:53:50;1.60;99.90
20319;DHT22;10317;47.254;11.314;2023-12-20T14:56:15;1.50;99.90
20319;DHT22;10317;47.254;11.314;2023-12-20T14:58:41;1.50;99.90
20319;DHT22;10317;47.254;11.314;2023-12-20T15:01:07;1.40;99.90
20319;DHT22;10317;47.254;11.314;2023-12-20T15:03:34;1.40;99.90
20319;DHT22;10317;47.254;11.314;2023-12-20T15:06:00;1.40;99.90
20319;DHT22;10317;47.254;11.314;2023-12-20T15:08:26;1.40;99.90
20319;DHT22;10317;47.254;11.314;2023-12-20T15:10:51;1.40;99.90
20319;DHT22;10317;47.254;11.314;2023-12-20T15:13:17;1.40;99.90
20319;DHT22;10317;47.254;11.314;2023-12-20T15:15:43;1.30;99.90
20319;DHT22;10317;47.254;11.314;2023-12-20T15:18:08;1.20;99.90
20319;DHT22;10317;47.254;11.314;2023-12-20T15:20:34;1.10;99.90
20319;DHT22;10317;47.254;11.314;2023-12-20T15:23:02;1.10;99.90
20319;DHT22;10317;47.254;11.314;2023-12-20T15:25:32;1.10;99.90
20319;DHT22;10317;47.254;11.314;2023-12-20T15:27:58;1.10;99.90
20319;DHT22;10317;47.254;11.314;2023-12-20T15:30:23;1.00;99.90
20319;DHT22;10317;47.254;11.314;2023-12-20T15:32:50;1.00;99.90
20319;DHT22;10317;47.254;11.314;2023-12-20T15:35:15;1.00;99.90